Latest Weather Observations for Frankston

IDV60801

Issued at 10:42 pm EST Monday 6 July 2020 (issued every 10 minutes, with the page automatically refreshed every 10 minutes)

About weather observations | Map of weather stations | Latest weather observations for VIC | Other Formats
Station Details ID: 086371 Name: FRANKSTON BEACH Lat: -38.15 Lon: 145.12 Height: 6.0 m
Data from the previous 72 hours. | See also: Recent months at Frankston
Date/Time
EST
Temp
°C
App
Temp
°C
Dew
Point
°C
Rel
Hum
%
Delta-T
°C
Wind Press
QNH
hPa
Press
MSL
hPa
Rain since
9am
mm
Dir  Spd
km/h
Gust
km/h
Spd
kts
Gust
kts
06/10:30pm - - - - - W 20 24 11 13 - - -
06/10:00pm - - - - - W 17 20 9 11 - - -
06/09:30pm - - - - - W 20 24 11 13 - - -
06/09:00pm - - - - - W 19 24 10 13 - - -
06/08:30pm - - - - - WSW 7 7 4 4 - - -
06/08:00pm - - - - - W 11 15 6 8 - - -
06/07:30pm - - - - - W 9 9 5 5 - - -
06/07:00pm - - - - - WSW 4 7 2 4 - - -
06/06:30pm - - - - - WSW 11 15 6 8 - - -
06/06:00pm - - - - - WSW 11 15 6 8 - - -
06/05:30pm - - - - - CALM 0 0 0 0 - - -
06/05:00pm - - - - - CALM 0 0 0 0 - - -
06/04:30pm - - - - - WSW 9 13 5 7 - - -
06/04:00pm - - - - - WSW 15 17 8 9 - - -
06/03:30pm - - - - - W 19 22 10 12 - - -
06/03:00pm - - - - - WSW 15 19 8 10 - - -
06/02:30pm - - - - - WNW 11 13 6 7 - - -
06/02:00pm - - - - - W 13 13 7 7 - - -
06/01:30pm - - - - - W 15 17 8 9 - - -
06/01:00pm - - - - - WSW 13 20 7 11 - - -
06/12:30pm - - - - - W 24 30 13 16 - - -
06/12:00pm - - - - - WSW 17 20 9 11 - - -
06/11:30am - - - - - WSW 20 26 11 14 - - -
06/11:00am - - - - - W 13 15 7 8 - - -
06/10:30am - - - - - W 11 11 6 6 - - -
06/10:00am - - - - - W 11 13 6 7 - - -
06/09:30am - - - - - W 13 15 7 8 - - -
06/09:00am - - - - - WNW 13 17 7 9 - - -
06/08:30am - - - - - WNW 19 20 10 11 - - -
06/08:00am - - - - - W 11 17 6 9 - - -
06/07:30am - - - - - W 7 9 4 5 - - -
06/07:00am - - - - - WSW 19 20 10 11 - - -
06/06:30am - - - - - W 13 15 7 8 - - -
06/06:00am - - - - - WSW 9 11 5 6 - - -
06/05:30am - - - - - W 15 15 8 8 - - -
06/05:00am - - - - - W 15 19 8 10 - - -
06/04:30am - - - - - CALM 0 0 0 0 - - -
06/04:00am - - - - - CALM 0 0 0 0 - - -
06/03:30am - - - - - CALM 0 0 0 0 - - -
06/03:00am - - - - - SSW 4 6 2 3 - - -
06/02:30am - - - - - SW 9 13 5 7 - - -
06/02:00am - - - - - SW 13 17 7 9 - - -
06/01:30am - - - - - SW 11 17 6 9 - - -
06/01:00am - - - - - SW 11 15 6 8 - - -
06/12:30am - - - - - SW 9 11 5 6 - - -
06/12:00am - - - - - WSW 17 30 9 16 - - -
 
Date/Time
EST
Temp
°C
App
Temp
°C
Dew
Point
°C
Rel
Hum
%
Delta-T
°C
Wind Press
QNH
hPa
Press
MSL
hPa
Rain since
9am
mm
Dir  Spd
km/h
Gust
km/h
Spd
kts
Gust
kts
05/11:30pm - - - - - WSW 15 19 8 10 - - -
05/11:00pm - - - - - SW 15 19 8 10 - - -
05/10:30pm - - - - - W 17 20 9 11 - - -
05/10:00pm - - - - - WSW 15 22 8 12 - - -
05/09:30pm - - - - - SW 13 19 7 10 - - -
05/09:00pm - - - - - WSW 15 19 8 10 - - -
05/08:30pm - - - - - WSW 15 22 8 12 - - -
05/08:00pm - - - - - SW 13 17 7 9 - - -
05/07:30pm - - - - - SW 9 15 5 8 - - -
05/07:00pm - - - - - SW 11 15 6 8 - - -
05/06:30pm - - - - - SW 15 22 8 12 - - -
05/06:00pm - - - - - WSW 13 24 7 13 - - -
05/05:30pm - - - - - WSW 13 17 7 9 - - -
05/05:00pm - - - - - WSW 17 20 9 11 - - -
05/04:30pm - - - - - WSW 17 24 9 13 - - -
05/04:00pm - - - - - WSW 13 19 7 10 - - -
05/03:30pm - - - - - WSW 20 30 11 16 - - -
05/03:00pm - - - - - WSW 17 19 9 10 - - -
05/02:30pm - - - - - WSW 20 22 11 12 - - -
05/02:00pm - - - - - WSW 22 28 12 15 - - -
05/01:30pm - - - - - WNW 19 20 10 11 - - -
05/01:00pm - - - - - W 17 22 9 12 - - -
05/12:30pm - - - - - W 17 20 9 11 - - -
05/12:00pm - - - - - W 20 26 11 14 - - -
05/11:30am - - - - - W 28 32 15 17 - - -
05/11:00am - - - - - W 26 32 14 17 - - -
05/10:30am - - - - - W 28 30 15 16 - - -
05/10:00am - - - - - W 26 30 14 16 - - -
05/09:30am - - - - - W 20 26 11 14 - - -
05/09:00am - - - - - W 28 32 15 17 - - -
05/08:30am - - - - - W 28 32 15 17 - - -
05/08:00am - - - - - WNW 26 32 14 17 - - -
05/07:30am - - - - - WNW 28 33 15 18 - - -
05/07:00am - - - - - WNW 24 30 13 16 - - -
05/06:30am - - - - - W 26 33 14 18 - - -
05/06:00am - - - - - WNW 28 33 15 18 - - -
05/05:30am - - - - - WNW 30 33 16 18 - - -
05/05:00am - - - - - W 28 32 15 17 - - -
05/04:30am - - - - - WNW 22 28 12 15 - - -
05/04:00am - - - - - W 20 26 11 14 - - -
05/03:30am - - - - - W 26 30 14 16 - - -
05/03:00am - - - - - W 26 30 14 16 - - -
05/02:30am - - - - - W 19 22 10 12 - - -
05/02:00am - - - - - W 24 26 13 14 - - -
05/01:30am - - - - - W 24 30 13 16 - - -
05/01:00am - - - - - WSW 13 17 7 9 - - -
05/12:30am - - - - - SW 17 22 9 12 - - -
05/12:00am - - - - - SW 13 17 7 9 - - -
 
Date/Time
EST
Temp
°C
App
Temp
°C
Dew
Point
°C
Rel
Hum
%
Delta-T
°C
Wind Press
QNH
hPa
Press
MSL
hPa
Rain since
9am
mm
Dir  Spd
km/h
Gust
km/h
Spd
kts
Gust
kts
04/11:30pm - - - - - SW 20 32 11 17 - - -
04/11:00pm - - - - - SW 11 15 6 8 - - -
04/10:30pm - - - - - SW 15 19 8 10 - - -
04/10:00pm - - - - - SW 19 24 10 13 - - -
04/09:30pm - - - - - WSW 17 19 9 10 - - -
04/09:00pm - - - - - WSW 30 35 16 19 - - -
04/08:30pm - - - - - WSW 26 35 14 19 - - -
04/08:00pm - - - - - W 20 26 11 14 - - -
04/07:30pm - - - - - WSW 24 30 13 16 - - -
04/07:00pm - - - - - WSW 15 19 8 10 - - -
04/06:30pm - - - - - WSW 17 26 9 14 - - -
04/06:00pm - - - - - W 30 35 16 19 - - -
04/05:30pm - - - - - WSW 30 37 16 20 - - -
04/05:00pm - - - - - W 35 44 19 24 - - -
04/04:30pm - - - - - W 35 41 19 22 - - -
04/04:00pm - - - - - WSW 35 43 19 23 - - -
04/03:30pm - - - - - WSW 28 35 15 19 - - -
04/03:00pm - - - - - W 20 26 11 14 - - -
04/02:30pm - - - - - W 24 33 13 18 - - -
04/02:00pm - - - - - WNW 26 32 14 17 - - -
04/01:30pm - - - - - NW 28 35 15 19 - - -
04/01:00pm - - - - - NW 30 37 16 20 - - -
04/12:30pm - - - - - WNW 32 37 17 20 - - -
04/12:00pm - - - - - WNW 32 39 17 21 - - -
04/11:30am - - - - - WNW 32 39 17 21 - - -
04/11:00am - - - - - WNW 28 33 15 18 - - -
04/10:30am - - - - - WNW 32 35 17 19 - - -
04/10:00am - - - - - WNW 32 37 17 20 - - -
04/09:30am - - - - - WNW 30 35 16 19 - - -
04/09:00am - - - - - NW 28 33 15 18 - - -
04/08:30am - - - - - WNW 30 35 16 19 - - -
04/08:00am - - - - - NW 28 33 15 18 - - -
04/07:30am - - - - - WNW 26 32 14 17 - - -
04/07:00am - - - - - WNW 32 35 17 19 - - -
04/06:30am - - - - - WNW 30 35 16 19 - - -
04/06:00am - - - - - WNW 28 33 15 18 - - -
04/05:30am - - - - - WNW 30 35 16 19 - - -
04/05:00am - - - - - W 28 33 15 18 - - -
04/04:30am - - - - - W 22 26 12 14 - - -
04/04:00am - - - - - W 32 37 17 20 - - -
04/03:30am - - - - - W 28 37 15 20 - - -
04/03:00am - - - - - W 26 32 14 17 - - -
04/02:30am - - - - - W 28 33 15 18 - - -
04/02:00am - - - - - W 28 35 15 19 - - -
04/01:30am - - - - - W 26 32 14 17 - - -
04/01:00am - - - - - SW 15 19 8 10 - - -
04/12:30am - - - - - W 24 37 13 20 - - -
04/12:10am - - - - - WSW 30 48 16 26 - - -
04/12:00am - - - - - WSW 26 39 14 21 - - -
 
Date/Time
EST
Temp
°C
App
Temp
°C
Dew
Point
°C
Rel
Hum
%
Delta-T
°C
Wind Press
QNH
hPa
Press
MSL
hPa
Rain since
9am
mm
Dir  Spd
km/h
Gust
km/h
Spd
kts
Gust
kts
03/11:30pm - - - - - WSW 9 11 5 6 - - -
03/11:00pm - - - - - SW 17 26 9 14 - - -

Other formats

Comma delimited format used in spreadsheet applications
http://www.bom.gov.au/fwo/IDV60801/IDV60801.94871.axf

JavaScript Object Notation format (JSON) in row-major order
http://www.bom.gov.au/fwo/IDV60801/IDV60801.94871.json

Data quality

Most of these data are generated automatically and are frequently updated. Quality checks on data are not normally performed. It is possible for incorrect values to appear. Refer to information at About Latest Weather Observations and please check the disclaimer before using these data.